createdAt,value
2023-07-14T00:01:05.335Z,4.20
2023-07-14T00:06:13.837Z,4.05
2023-07-14T00:11:18.742Z,3.85
2023-07-14T00:16:24.880Z,4.50
2023-07-14T00:21:30.097Z,4.10
2023-07-14T00:26:35.020Z,4.20
2023-07-14T00:31:38.693Z,4.20
2023-07-14T00:36:43.737Z,4.47
2023-07-14T00:41:47.758Z,5.00
2023-07-14T00:46:51.373Z,4.43
2023-07-14T00:51:59.028Z,4.70
2023-07-14T00:57:03.268Z,4.95
2023-07-14T01:02:22.385Z,4.53
2023-07-14T01:07:33.777Z,4.40
2023-07-14T01:12:40.844Z,4.97
2023-07-14T01:17:46.723Z,4.95
2023-07-14T01:23:02.735Z,5.10
2023-07-14T01:28:10.111Z,4.90
2023-07-14T01:33:16.703Z,4.78
2023-07-14T01:38:21.113Z,4.97
2023-07-14T01:43:26.534Z,4.88
2023-07-14T01:48:34.571Z,4.60
2023-07-14T01:53:43.054Z,4.50
2023-07-14T01:58:58.138Z,4.43
2023-07-14T02:04:06.062Z,4.38
2023-07-14T02:09:11.280Z,4.50
2023-07-14T02:14:21.329Z,4.85
2023-07-14T02:19:27.450Z,4.78
2023-07-14T02:24:33.001Z,4.57
2023-07-14T02:29:38.048Z,4.20
2023-07-14T02:34:47.069Z,4.63
2023-07-14T02:39:51.416Z,4.10
2023-07-14T02:44:56.387Z,4.00
2023-07-14T02:50:00.142Z,4.88
2023-07-14T02:55:05.104Z,5.30
2023-07-14T03:00:13.134Z,4.35
2023-07-14T03:05:19.287Z,4.20
2023-07-14T03:10:23.358Z,4.97
2023-07-14T03:15:28.483Z,4.97
2023-07-14T03:20:32.283Z,4.35
2023-07-14T03:25:37.006Z,4.88
2023-07-14T03:35:45.962Z,5.28
2023-07-14T03:40:49.576Z,5.03
2023-07-14T03:45:54.845Z,4.57
2023-07-14T03:51:02.816Z,5.90
2023-07-14T03:56:07.003Z,5.90
2023-07-14T04:01:12.159Z,6.63
2023-07-14T04:06:16.174Z,6.70
2023-07-14T04:11:20.107Z,6.95
2023-07-14T04:16:25.552Z,7.30
2023-07-14T04:21:29.261Z,7.15
2023-07-14T04:26:32.962Z,7.10
2023-07-14T04:31:39.628Z,6.90
2023-07-14T04:36:45.497Z,7.60
2023-07-14T04:41:49.096Z,7.10
2023-07-14T04:46:54.172Z,6.17
2023-07-14T04:51:58.235Z,6.68
2023-07-14T04:57:02.816Z,6.43
2023-07-14T05:07:12.358Z,8.27
2023-07-14T05:12:16.081Z,8.30
2023-07-14T05:17:21.366Z,9.27
2023-07-14T05:22:25.137Z,9.55
2023-07-14T05:27:28.863Z,9.63
2023-07-14T05:32:35.148Z,9.13
2023-07-14T05:37:38.922Z,7.68
2023-07-14T05:42:43.509Z,8.10
2023-07-14T05:48:15.721Z,4.80
2023-07-14T05:53:28.557Z,4.30
2023-07-14T05:58:32.122Z,4.53
2023-07-14T06:03:37.528Z,3.50
2023-07-14T06:08:41.963Z,3.22
2023-07-14T06:13:47.898Z,3.35
2023-07-14T06:18:54.321Z,3.50
2023-07-14T06:24:04.359Z,2.83
2023-07-14T06:29:08.533Z,2.35
2023-07-14T06:34:16.700Z,2.58
2023-07-14T06:39:21.172Z,2.38
2023-07-14T06:44:26.646Z,2.80
2023-07-14T06:49:34.445Z,2.03
2023-07-14T06:54:41.286Z,2.17
2023-07-14T06:59:46.619Z,2.50
2023-07-14T07:04:51.917Z,2.20
2023-07-14T07:09:56.583Z,4.55
2023-07-14T07:15:00.206Z,1.77
2023-07-14T07:20:08.519Z,1.60
2023-07-14T07:25:12.204Z,1.73
2023-07-14T07:30:16.233Z,1.73
2023-07-14T07:45:27.850Z,1.52
2023-07-14T07:50:32.769Z,1.50
2023-07-14T07:55:36.707Z,1.67
2023-07-14T08:00:42.909Z,1.60
2023-07-14T08:05:47.872Z,1.38
2023-07-14T08:10:51.460Z,1.30
2023-07-14T08:15:56.084Z,1.20
2023-07-14T08:21:03.022Z,1.40
2023-07-14T08:31:44.127Z,1.30
2023-07-14T08:36:49.784Z,1.30
2023-07-14T08:41:58.687Z,1.55
2023-07-14T08:47:09.429Z,1.50
2023-07-14T08:52:25.661Z,1.58
2023-07-14T08:57:31.174Z,1.45
2023-07-14T09:02:40.018Z,1.60
2023-07-14T09:07:46.420Z,1.70
2023-07-14T09:12:57.686Z,1.50
2023-07-14T09:18:29.891Z,1.90
2023-07-14T09:24:13.401Z,2.00
2023-07-14T09:29:20.552Z,2.10
2023-07-14T09:34:30.877Z,2.00
2023-07-14T09:39:39.428Z,1.60
2023-07-14T09:44:43.034Z,1.80
2023-07-14T09:49:49.816Z,1.70
2023-07-14T09:54:56.088Z,2.08
2023-07-14T10:00:12.280Z,1.60
2023-07-14T10:05:35.596Z,1.70
2023-07-14T10:10:44.165Z,1.73
2023-07-14T10:15:56.093Z,2.22
2023-07-14T10:21:03.204Z,1.63
2023-07-14T10:26:08.961Z,1.80
2023-07-14T10:31:26.341Z,2.22
2023-07-14T10:36:35.188Z,2.00
2023-07-14T10:41:42.432Z,1.73
2023-07-14T10:46:49.770Z,1.83
2023-07-14T10:51:59.181Z,1.90
2023-07-14T10:57:07.889Z,3.38
2023-07-14T11:02:22.466Z,4.05
2023-07-14T11:07:30.461Z,3.50
2023-07-14T11:12:42.606Z,4.15
2023-07-14T11:17:57.233Z,4.13
2023-07-14T11:23:20.700Z,3.83
2023-07-14T11:28:38.263Z,3.30
2023-07-14T11:33:47.854Z,3.17
2023-07-14T11:38:59.534Z,2.95
2023-07-14T11:44:11.717Z,3.00
2023-07-14T11:49:27.194Z,3.50
2023-07-14T11:54:44.076Z,3.75
2023-07-14T11:59:59.981Z,3.28
2023-07-14T12:05:37.405Z,3.60
2023-07-14T12:10:48.621Z,3.65
2023-07-14T12:16:13.970Z,2.78
2023-07-14T12:21:34.007Z,2.75
2023-07-14T12:26:41.578Z,2.67
2023-07-14T12:31:51.420Z,2.70
2023-07-14T12:36:55.201Z,2.30
2023-07-14T12:41:58.843Z,5.82
2023-07-14T12:47:04.228Z,2.67
2023-07-14T12:52:10.876Z,2.40
2023-07-14T12:57:15.803Z,2.05
2023-07-14T13:02:21.120Z,2.05
2023-07-14T13:07:32.384Z,2.40
2023-07-14T13:12:36.518Z,2.28
2023-07-14T13:22:45.154Z,2.17
2023-07-14T13:27:50.000Z,2.25
2023-07-14T13:32:56.116Z,2.20
2023-07-14T13:38:01.542Z,2.05
2023-07-14T13:43:05.707Z,2.03
2023-07-14T13:48:24.849Z,2.20
2023-07-14T13:53:29.123Z,2.30
2023-07-14T14:03:37.726Z,2.28
2023-07-14T14:08:42.091Z,2.22
2023-07-14T14:13:45.700Z,2.33
2023-07-14T14:18:52.779Z,2.35
2023-07-14T14:23:56.413Z,2.83
2023-07-14T14:29:01.271Z,2.50
2023-07-14T14:34:12.528Z,2.90
2023-07-14T14:39:17.299Z,3.10
2023-07-14T14:44:23.575Z,3.58
2023-07-14T14:49:28.971Z,3.22
2023-07-14T14:54:32.673Z,3.90
2023-07-14T14:59:36.902Z,3.47
2023-07-14T15:09:45.876Z,4.07
2023-07-14T15:14:54.067Z,4.70
2023-07-14T15:19:59.229Z,4.38
2023-07-14T15:25:02.826Z,4.82
2023-07-14T15:30:16.657Z,4.65
2023-07-14T15:35:23.919Z,5.57
2023-07-14T15:40:29.645Z,4.70
2023-07-14T15:45:33.787Z,5.00
2023-07-14T15:50:38.754Z,4.60
2023-07-14T15:55:42.594Z,4.93
2023-07-14T16:00:46.731Z,5.25
2023-07-14T16:10:56.287Z,5.18
2023-07-14T16:16:00.089Z,4.55
2023-07-14T16:21:10.000Z,5.15
2023-07-14T16:26:13.907Z,6.22
2023-07-14T16:31:20.348Z,5.85
2023-07-14T16:36:29.430Z,5.50
2023-07-14T16:41:34.360Z,4.47
2023-07-14T16:46:51.087Z,3.88
2023-07-14T16:51:57.121Z,4.30
2023-07-14T16:57:01.843Z,3.53
2023-07-14T17:02:06.154Z,3.40
2023-07-14T17:12:16.826Z,3.50
2023-07-14T17:17:20.512Z,3.30
2023-07-14T17:22:26.675Z,3.78
2023-07-14T17:27:30.291Z,3.63
2023-07-14T17:32:34.070Z,3.90
2023-07-14T17:37:39.953Z,4.07
2023-07-14T17:42:44.055Z,4.13
2023-07-14T17:47:49.171Z,4.25
2023-07-14T17:52:54.954Z,4.10
2023-07-14T17:57:59.237Z,4.28
2023-07-14T18:03:04.790Z,4.05
2023-07-14T18:08:13.702Z,4.43
2023-07-14T18:13:22.120Z,4.00
2023-07-14T18:18:28.121Z,4.30
2023-07-14T18:23:35.106Z,4.30
2023-07-14T18:28:38.756Z,4.45
2023-07-14T18:33:44.918Z,4.43
2023-07-14T18:38:49.866Z,4.80
2023-07-14T18:43:55.522Z,4.45
2023-07-14T18:48:59.137Z,4.72
2023-07-14T18:54:15.891Z,5.07
2023-07-14T18:59:20.403Z,5.05
2023-07-14T19:09:29.318Z,5.30
2023-07-14T19:14:33.218Z,5.30
2023-07-14T19:19:36.799Z,5.70
2023-07-14T19:24:42.230Z,5.17
2023-07-14T19:29:46.586Z,5.45
2023-07-14T19:34:51.091Z,5.88
2023-07-14T19:39:56.641Z,5.22
2023-07-14T19:45:00.989Z,5.88
2023-07-14T19:50:05.617Z,6.40
2023-07-14T19:55:20.926Z,6.10
2023-07-14T20:00:24.762Z,7.35
2023-07-14T20:05:30.176Z,8.65
2023-07-14T20:10:35.726Z,9.85
2023-07-14T20:15:40.293Z,10.70
2023-07-14T20:20:44.144Z,10.48
2023-07-14T20:25:50.415Z,9.55
2023-07-14T20:30:56.587Z,11.45
2023-07-14T20:36:00.183Z,11.23
2023-07-14T20:41:06.257Z,11.10
2023-07-14T20:46:20.574Z,11.32
2023-07-14T20:51:24.802Z,10.38
2023-07-14T20:56:29.809Z,10.25
2023-07-14T21:01:36.073Z,9.82
2023-07-14T21:06:40.160Z,10.07
2023-07-14T21:11:46.391Z,10.00
2023-07-14T21:16:50.483Z,9.38
2023-07-14T21:21:54.748Z,8.77
2023-07-14T21:26:59.683Z,7.85
2023-07-14T21:32:03.301Z,8.93
2023-07-14T21:37:08.280Z,8.00
2023-07-14T21:42:15.764Z,8.00
2023-07-14T21:47:22.111Z,7.85
2023-07-14T21:52:25.791Z,7.88
2023-07-14T21:57:30.701Z,8.37
2023-07-14T22:02:34.880Z,8.63
2023-07-14T22:07:38.621Z,8.40
2023-07-14T22:12:43.733Z,8.40
2023-07-14T22:17:47.316Z,8.45
2023-07-14T22:22:51.026Z,7.90
2023-07-14T22:27:56.171Z,7.40
2023-07-14T22:32:59.803Z,7.00
2023-07-14T22:38:03.576Z,6.97
2023-07-14T22:43:11.108Z,7.33
2023-07-14T22:48:15.735Z,7.32
2023-07-14T22:53:21.502Z,7.35
2023-07-14T22:58:29.689Z,6.57
2023-07-14T23:03:36.357Z,6.82
2023-07-14T23:08:40.711Z,7.20
2023-07-14T23:23:54.389Z,6.82
2023-07-14T23:28:59.537Z,6.57
2023-07-14T23:34:03.330Z,6.32
2023-07-14T23:39:08.963Z,6.50
2023-07-14T23:44:20.910Z,6.30
2023-07-14T23:49:24.604Z,7.13
2023-07-14T23:54:28.152Z,7.97
2023-07-14T23:59:33.369Z,6.47
